Terminal Aerodrome Forecast
Issued by NWS Mt. Holly, NJ

Home | Current Version | Previous Version | Text Only | Print | Product List | Glossary On
Versions: 1 2 3 4 5 6 7 8 9 10 11 12 13 14 15 16 17 18 19 20 21 22
000
FTUS41 KPHI 232000 AAA
TAFPHL
TAF AMD
KPHL 232059Z 2321/2424 21012KT P6SM SCT040
      TEMPO 2400/2403 3SM TSRA BKN035CB
     FM240300 24006KT 6SM -SHRA BR BKN050
     FM240500 31008KT P6SM VCSH SCT040 BKN100
     FM241400 35010KT P6SM BKN050
     FM242000 32010KT P6SM SCT050 BKN200=

USA.gov is the U.S. government's official web portal to all federal, state and local government web resources and services.